Time;durP1;ratioP1;P1;durP2;ratioP2;P2;SDS_P1;SDS_P2;PMS_P1;PMS_P2;Temp;Humidity;BMP_temperature;BMP_pressure;BME280_temperature;BME280_humidity;BME280_pressure;Samples;Min_cycle;Max_cycle;Signal;HPM_P1;HPM_P2
2022/10/19 00:01:06;;;;;;;7.53;1.13;;;10.90;99.90;;;;;;4976808;28;20496;-70
2022/10/19 00:03:34;;;;;;;6.80;1.00;;;10.80;99.90;;;;;;4977198;28;20081;-70
2022/10/19 00:06:08;;;;;;;6.82;1.02;;;10.70;99.90;;;;;;4976952;28;20082;-71
2022/10/19 00:08:34;;;;;;;4.80;1.17;;;10.70;99.90;;;;;;4977006;28;20042;-70
2022/10/19 00:11:00;;;;;;;9.55;1.52;;;10.60;99.90;;;;;;4976756;28;20045;-70
2022/10/19 00:13:26;;;;;;;8.93;1.75;;;10.60;99.90;;;;;;4977261;28;20042;-71
2022/10/19 00:15:51;;;;;;;7.97;1.45;;;10.60;99.90;;;;;;4976544;28;20403;-70
2022/10/19 00:18:17;;;;;;;5.97;1.25;;;10.60;99.90;;;;;;4976510;28;20069;-70
2022/10/19 00:20:42;;;;;;;6.93;1.80;;;10.60;99.90;;;;;;4960461;28;20050;-71
2022/10/19 00:23:08;;;;;;;10.55;1.80;;;10.60;99.90;;;;;;4994246;28;20031;-71
2022/10/19 00:25:34;;;;;;;8.75;1.75;;;10.60;99.90;;;;;;4976515;28;20515;-70
2022/10/19 00:27:59;;;;;;;8.88;1.77;;;10.70;99.90;;;;;;4976708;28;20128;-70
2022/10/19 00:30:25;;;;;;;8.38;1.77;;;10.70;99.90;;;;;;4976589;28;20499;-70
2022/10/19 00:32:51;;;;;;;6.60;1.70;;;10.70;99.90;;;;;;4960806;28;20043;-70
2022/10/19 00:35:16;;;;;;;6.65;1.80;;;10.80;99.90;;;;;;4960940;28;20133;-71
2022/10/19 00:37:42;;;;;;;9.93;1.55;;;10.80;99.90;;;;;;4976270;28;20415;-70
2022/10/19 00:40:08;;;;;;;8.52;1.42;;;10.80;99.90;;;;;;4976383;28;20122;-70
2022/10/19 00:42:33;;;;;;;6.18;1.20;;;10.80;99.90;;;;;;4976481;28;20385;-70
2022/10/19 00:45:05;;;;;;;7.20;1.08;;;10.90;99.90;;;;;;4976682;28;20089;-70
2022/10/19 00:47:31;;;;;;;4.22;1.20;;;10.90;99.90;;;;;;4976380;28;20522;-71
2022/10/19 00:49:57;;;;;;;9.77;1.58;;;10.90;99.90;;;;;;4976430;28;20039;-70
2022/10/19 00:52:25;;;;;;;3.33;1.20;;;10.90;99.90;;;;;;4960490;28;20046;-70
2022/10/19 00:54:52;;;;;;;10.65;1.42;;;10.90;99.90;;;;;;4976636;28;20503;-70
2022/10/19 00:57:19;;;;;;;9.30;1.50;;;10.90;99.90;;;;;;4977857;28;20058;-70
2022/10/19 00:59:45;;;;;;;8.38;1.65;;;10.90;99.90;;;;;;4980028;28;20407;-70
2022/10/19 01:02:11;;;;;;;6.97;1.67;;;10.90;99.90;;;;;;4997909;28;20035;-70
2022/10/19 01:04:41;;;;;;;7.25;1.80;;;10.80;99.90;;;;;;4980268;28;20038;-70
2022/10/19 01:07:07;;;;;;;9.18;1.58;;;10.80;99.90;;;;;;4963846;28;20053;-71
2022/10/19 01:09:33;;;;;;;9.65;1.88;;;10.90;99.90;;;;;;4979760;28;20449;-70
2022/10/19 01:12:21;;;;;;;10.38;1.90;;;10.90;99.90;;;;;;4980279;28;20407;-70
2022/10/19 01:15:02;;;;;;;8.38;1.55;;;10.90;99.90;;;;;;4979862;28;20128;-71
2022/10/19 01:17:52;;;;;;;8.48;1.92;;;10.90;99.90;;;;;;4963574;28;20093;-71
2022/10/19 01:20:26;;;;;;;13.10;1.90;;;10.90;99.90;;;;;;4979736;28;20042;-71
2022/10/19 01:23:04;;;;;;;7.28;1.60;;;10.90;99.90;;;;;;4997148;28;20073;-71
2022/10/19 01:25:48;;;;;;;10.48;2.05;;;10.90;99.90;;;;;;4979782;28;20039;-70
2022/10/19 01:28:31;;;;;;;8.60;1.80;;;10.90;99.90;;;;;;4979549;28;20038;-70
2022/10/19 01:31:15;;;;;;;;;;;11.00;99.90;;;;;;4980096;28;20121;-71
2022/10/19 01:33:59;;;;;;;6.97;1.92;;;10.90;99.90;;;;;;4979426;28;19964;-70
2022/10/19 01:36:37;;;;;;;7.07;1.83;;;11.00;99.90;;;;;;4979758;28;20054;-71
2022/10/19 01:39:16;;;;;;;11.93;2.00;;;11.00;99.90;;;;;;4979264;28;20407;-70
2022/10/19 01:41:57;;;;;;;10.80;2.33;;;11.10;99.90;;;;;;4979400;28;20048;-70
2022/10/19 01:44:33;;;;;;;10.93;1.80;;;11.10;99.90;;;;;;4979737;28;20041;-71
2022/10/19 01:47:04;;;;;;;9.75;2.20;;;11.10;99.90;;;;;;4979630;28;20376;-70
2022/10/19 01:49:52;;;;;;;7.00;1.83;;;11.00;99.90;;;;;;4979245;28;20085;-70
2022/10/19 01:52:19;;;;;;;13.63;2.58;;;11.10;99.90;;;;;;4980250;28;20045;-70
2022/10/19 01:54:49;;;;;;;8.68;2.08;;;11.00;99.90;;;;;;4979228;28;20046;-70
2022/10/19 01:57:23;;;;;;;9.43;2.10;;;11.10;99.90;;;;;;4978894;28;20045;-71
2022/10/19 01:59:50;;;;;;;11.35;2.20;;;11.00;99.90;;;;;;4962837;28;20046;-70
2022/10/19 02:02:18;;;;;;;7.82;2.17;;;11.00;99.90;;;;;;4978886;28;20042;-70
2022/10/19 02:04:44;;;;;;;14.32;2.50;;;11.00;99.90;;;;;;4978920;28;20043;-71
2022/10/19 02:07:11;;;;;;;12.18;2.10;;;11.00;99.90;;;;;;4978772;28;20045;-71
2022/10/19 02:09:36;;;;;;;7.88;2.03;;;11.10;99.90;;;;;;4977449;28;20108;-70
2022/10/19 02:12:08;;;;;;;9.65;1.73;;;11.10;99.90;;;;;;4979066;28;20136;-70
2022/10/19 02:14:38;;;;;;;9.80;2.10;;;11.10;99.90;;;;;;4962597;28;20042;-71
2022/10/19 02:17:14;;;;;;;10.60;2.63;;;11.20;99.90;;;;;;4978745;28;20050;-70
2022/10/19 02:19:40;;;;;;;9.63;2.42;;;11.20;99.90;;;;;;4978580;28;20051;-70
2022/10/19 02:22:06;;;;;;;9.77;2.20;;;11.20;99.90;;;;;;4978609;28;20038;-71
2022/10/19 02:24:32;;;;;;;7.18;2.17;;;11.20;99.90;;;;;;4978820;28;20096;-70
2022/10/19 02:26:59;;;;;;;7.55;2.08;;;11.20;99.90;;;;;;4978446;28;20034;-70
2022/10/19 02:29:25;;;;;;;10.52;2.25;;;11.20;99.90;;;;;;4978429;28;20042;-70
2022/10/19 02:31:51;;;;;;;9.57;2.28;;;11.20;99.90;;;;;;4978599;28;20042;-70
2022/10/19 02:34:17;;;;;;;10.43;1.80;;;11.20;99.90;;;;;;4978526;28;20050;-70
2022/10/19 02:36:43;;;;;;;10.82;2.20;;;11.20;99.90;;;;;;4978311;28;20492;-70
2022/10/19 02:39:08;;;;;;;4.82;1.50;;;11.20;99.90;;;;;;4978153;28;20072;-70
2022/10/19 02:41:44;;;;;;;9.13;1.88;;;11.20;99.90;;;;;;4978428;28;20488;-71
2022/10/19 02:44:23;;;;;;;8.32;1.77;;;11.20;99.90;;;;;;4978199;28;20046;-71
2022/10/19 02:46:56;;;;;;;8.02;1.60;;;11.20;99.90;;;;;;4995664;28;20081;-70
2022/10/19 02:49:21;;;;;;;12.70;2.08;;;11.20;99.90;;;;;;4978524;28;20047;-70
2022/10/19 02:52:03;;;;;;;10.25;2.33;;;11.10;99.90;;;;;;4977944;28;20042;-70
2022/10/19 02:54:29;;;;;;;11.18;1.83;;;11.00;99.90;;;;;;4978005;28;20050;-70
2022/10/19 02:56:55;;;;;;;8.32;1.80;;;11.00;99.90;;;;;;4977840;28;20048;-70
2022/10/19 02:59:20;;;;;;;11.27;1.85;;;10.90;99.90;;;;;;4977716;28;20038;-70
2022/10/19 03:01:46;;;;;;;11.00;1.63;;;10.90;99.90;;;;;;4977859;28;20549;-71
2022/10/19 03:04:11;;;;;;;6.32;1.60;;;10.80;99.90;;;;;;4978714;28;20076;-71
2022/10/19 03:06:37;;;;;;;7.85;1.60;;;10.90;99.90;;;;;;4978066;28;20104;-71
2022/10/19 03:09:03;;;;;;;8.77;1.60;;;10.90;99.90;;;;;;4977929;28;20065;-70
2022/10/19 03:11:28;;;;;;;9.75;1.42;;;10.80;99.90;;;;;;4977693;28;20097;-71
2022/10/19 03:13:54;;;;;;;10.93;1.92;;;10.80;99.90;;;;;;4977644;28;20042;-71
2022/10/19 03:16:19;;;;;;;11.52;1.77;;;10.80;99.90;;;;;;4978210;28;20049;-70
2022/10/19 03:18:48;;;;;;;18.05;2.33;;;10.80;99.90;;;;;;4977387;28;20125;-70
2022/10/19 03:21:13;;;;;;;4.60;1.33;;;10.80;99.90;;;;;;4977170;28;20051;-71
2022/10/19 03:23:39;;;;;;;11.20;2.33;;;10.80;99.90;;;;;;4977471;28;20046;-71
2022/10/19 03:26:06;;;;;;;6.15;1.52;;;10.80;99.90;;;;;;4977563;28;20487;-70
2022/10/19 03:28:32;;;;;;;6.03;1.70;;;10.80;99.90;;;;;;4977577;28;20038;-70
2022/10/19 03:30:58;;;;;;;8.93;1.50;;;10.70;99.90;;;;;;4977632;28;20399;-71
2022/10/19 03:33:24;;;;;;;10.10;1.70;;;10.70;99.90;;;;;;4977599;28;20041;-70
2022/10/19 03:35:49;;;;;;;6.55;1.80;;;10.80;99.90;;;;;;4977537;28;20061;-70
2022/10/19 03:38:15;;;;;;;7.95;1.70;;;10.80;99.90;;;;;;4977456;28;20503;-71
2022/10/19 03:40:41;;;;;;;9.77;1.25;;;10.70;99.90;;;;;;4977180;28;20046;-71
2022/10/19 03:43:07;;;;;;;6.68;1.60;;;10.70;99.90;;;;;;4977540;28;20121;-71
2022/10/19 03:45:32;;;;;;;12.55;2.17;;;10.70;99.90;;;;;;4977137;28;20101;-70
2022/10/19 03:47:58;;;;;;;7.80;1.67;;;10.60;99.90;;;;;;4977477;28;20129;-70
2022/10/19 03:50:23;;;;;;;6.15;1.48;;;10.60;99.90;;;;;;4977298;28;20097;-70
2022/10/19 03:52:49;;;;;;;9.25;1.60;;;10.60;99.90;;;;;;4977307;28;20096;-70
2022/10/19 03:55:15;;;;;;;7.68;1.65;;;10.60;99.90;;;;;;4977086;28;20053;-70
2022/10/19 03:57:41;;;;;;;14.25;2.72;;;10.60;99.90;;;;;;4961034;28;20407;-70
2022/10/19 04:00:08;;;;;;;8.13;1.55;;;10.50;99.90;;;;;;4977357;28;20042;-71
2022/10/19 04:02:34;;;;;;;7.00;1.60;;;10.50;99.90;;;;;;4977295;28;20045;-70
2022/10/19 04:04:59;;;;;;;8.45;1.45;;;10.50;99.90;;;;;;4977432;28;20042;-70
2022/10/19 04:07:25;;;;;;;9.52;1.45;;;10.50;99.90;;;;;;4977015;28;20081;-70
2022/10/19 04:09:50;;;;;;;7.07;1.40;;;10.50;99.90;;;;;;4977214;28;20041;-70
2022/10/19 04:12:16;;;;;;;9.85;1.52;;;10.50;99.90;;;;;;4977085;28;20522;-70
2022/10/19 04:14:41;;;;;;;9.95;2.10;;;10.50;99.90;;;;;;4977980;28;20100;-70
2022/10/19 04:17:08;;;;;;;8.43;1.50;;;10.50;99.90;;;;;;4977027;28;20381;-70
2022/10/19 04:19:34;;;;;;;5.80;1.35;;;10.50;99.90;;;;;;4976882;28;20038;-70
2022/10/19 04:21:59;;;;;;;8.18;1.40;;;10.50;99.90;;;;;;4977081;28;20046;-70
2022/10/19 04:24:25;;;;;;;11.55;1.92;;;10.50;99.90;;;;;;4994463;28;20061;-70
2022/10/19 04:26:53;;;;;;;8.30;1.50;;;10.50;99.90;;;;;;4976853;28;20403;-71
2022/10/19 04:29:20;;;;;;;10.18;1.40;;;10.50;99.90;;;;;;4976581;28;20114;-70
2022/10/19 04:31:50;;;;;;;7.20;1.50;;;10.50;99.90;;;;;;4977220;28;20089;-70
2022/10/19 04:34:16;;;;;;;5.78;1.35;;;10.50;99.90;;;;;;4981066;28;20041;-71
2022/10/19 04:36:43;;;;;;;8.48;1.52;;;10.40;99.90;;;;;;4980900;28;20529;-70
2022/10/19 04:39:08;;;;;;;8.88;1.80;;;10.40;99.90;;;;;;4980777;28;20042;-70
2022/10/19 04:41:35;;;;;;;4.88;1.40;;;10.40;99.90;;;;;;4980771;28;20065;-70
2022/10/19 04:44:02;;;;;;;8.48;1.50;;;10.30;99.90;;;;;;4980823;28;20562;-71
2022/10/19 04:46:29;;;;;;;8.93;1.58;;;10.30;99.90;;;;;;4980823;28;20042;-70
2022/10/19 04:48:56;;;;;;;10.15;1.73;;;10.30;99.90;;;;;;4981213;28;20069;-70
2022/10/19 04:51:23;;;;;;;7.03;1.38;;;10.30;99.90;;;;;;4980805;28;20124;-71
2022/10/19 04:53:49;;;;;;;7.75;2.03;;;10.20;99.90;;;;;;4964554;28;20042;-70
2022/10/19 04:56:20;;;;;;;9.93;2.13;;;10.20;99.90;;;;;;4980710;28;20038;-71
2022/10/19 04:58:46;;;;;;;9.48;2.03;;;10.10;99.90;;;;;;4964483;28;20121;-70
2022/10/19 05:01:13;;;;;;;9.02;2.03;;;10.10;99.90;;;;;;4980373;28;20042;-70
2022/10/19 05:03:39;;;;;;;8.50;2.33;;;10.10;99.90;;;;;;4964498;28;20046;-70
2022/10/19 05:06:05;;;;;;;11.75;2.58;;;10.10;99.90;;;;;;4980755;28;20117;-70
2022/10/19 05:08:31;;;;;;;8.10;2.67;;;10.10;99.90;;;;;;4964370;28;20039;-70
2022/10/19 05:11:07;;;;;;;11.23;1.95;;;10.10;99.90;;;;;;4980787;28;20046;-70
2022/10/19 05:13:33;;;;;;;11.27;1.45;;;10.10;99.90;;;;;;4980507;28;20050;-71
2022/10/19 05:16:01;;;;;;;10.25;1.73;;;10.10;99.90;;;;;;4980455;28;20124;-70
2022/10/19 05:18:28;;;;;;;10.02;1.88;;;10.10;99.90;;;;;;4980259;28;20558;-70
2022/10/19 05:21:10;;;;;;;12.90;1.52;;;10.10;99.90;;;;;;4980710;28;20496;-71
2022/10/19 05:23:36;;;;;;;12.30;1.50;;;10.10;99.90;;;;;;4980673;28;20030;-70
2022/10/19 05:26:07;;;;;;;12.20;1.77;;;10.10;99.90;;;;;;4980260;28;20517;-71
2022/10/19 05:28:34;;;;;;;10.40;1.88;;;10.10;99.90;;;;;;4963919;28;20129;-70
2022/10/19 05:31:09;;;;;;;6.30;1.23;;;10.10;99.90;;;;;;4980960;28;20046;-70
2022/10/19 05:33:36;;;;;;;10.65;1.88;;;10.20;99.90;;;;;;4980393;28;20411;-71
2022/10/19 05:36:10;;;;;;;6.15;1.55;;;10.20;99.90;;;;;;4980207;28;20046;-71
2022/10/19 05:38:36;;;;;;;7.65;1.27;;;10.20;99.90;;;;;;4979819;28;20038;-70
2022/10/19 05:41:01;;;;;;;11.60;1.98;;;10.20;99.90;;;;;;4980751;28;20101;-71
2022/10/19 05:43:27;;;;;;;11.85;1.67;;;10.20;99.90;;;;;;4980506;28;20042;-71
2022/10/19 05:45:52;;;;;;;12.25;1.67;;;10.20;99.90;;;;;;4965162;28;20395;-71
2022/10/19 05:48:18;;;;;;;12.52;1.70;;;10.20;99.90;;;;;;4979569;28;20507;-70
2022/10/19 05:50:53;;;;;;;7.85;1.52;;;10.20;99.90;;;;;;4963792;28;20046;-70
2022/10/19 05:53:19;;;;;;;11.70;1.60;;;10.20;99.90;;;;;;4979556;28;20042;-70
2022/10/19 05:55:45;;;;;;;12.38;1.85;;;10.20;99.90;;;;;;4979484;28;20049;-70
2022/10/19 05:58:10;;;;;;;9.15;1.83;;;10.20;99.90;;;;;;4979602;28;20065;-70
2022/10/19 06:00:36;;;;;;;13.27;1.63;;;10.20;99.90;;;;;;4979230;28;20455;-71
2022/10/19 06:03:01;;;;;;;8.25;1.40;;;10.20;99.90;;;;;;4979029;28;20042;-70
2022/10/19 06:05:27;;;;;;;10.02;1.95;;;10.20;99.90;;;;;;4978915;28;20053;-71
2022/10/19 06:07:52;;;;;;;13.00;1.83;;;10.20;99.90;;;;;;4978676;28;20092;-70
2022/10/19 06:10:19;;;;;;;8.90;1.40;;;10.20;99.90;;;;;;4978838;28;20042;-71
2022/10/19 06:12:45;;;;;;;12.05;1.33;;;10.20;99.90;;;;;;4978652;28;20050;-70
2022/10/19 06:15:11;;;;;;;12.38;2.00;;;10.30;99.90;;;;;;4962490;28;20049;-70
2022/10/19 06:17:36;;;;;;;7.53;1.67;;;10.20;99.90;;;;;;4962477;28;20049;-70
2022/10/19 06:20:03;;;;;;;10.93;2.05;;;10.20;99.90;;;;;;4978578;28;20085;-71
2022/10/19 06:22:28;;;;;;;11.60;1.85;;;10.30;99.90;;;;;;4978628;28;20034;-71
2022/10/19 06:24:55;;;;;;;11.48;1.70;;;10.30;99.90;;;;;;4962605;28;20092;-70
2022/10/19 06:27:21;;;;;;;13.18;1.88;;;10.30;99.90;;;;;;4978757;28;20415;-71
2022/10/19 06:29:46;;;;;;;12.98;2.15;;;10.30;99.90;;;;;;4978441;28;20038;-72
2022/10/19 06:32:12;;;;;;;14.55;2.13;;;10.30;99.90;;;;;;4978500;28;20035;-71
2022/10/19 06:34:37;;;;;;;10.35;1.80;;;10.30;99.90;;;;;;4962198;28;20153;-71
2022/10/19 06:37:03;;;;;;;12.00;2.03;;;10.30;99.90;;;;;;4978738;28;20125;-71
2022/10/19 06:39:28;;;;;;;7.63;1.65;;;10.40;99.90;;;;;;4978501;28;20121;-70
2022/10/19 06:41:54;;;;;;;13.43;1.73;;;10.40;99.90;;;;;;4978489;28;20125;-70
2022/10/19 06:44:20;;;;;;;12.60;2.00;;;10.40;99.90;;;;;;4978274;28;20145;-70
2022/10/19 06:46:45;;;;;;;9.27;1.67;;;10.40;99.90;;;;;;4978336;28;20097;-70
2022/10/19 06:49:12;;;;;;;11.40;2.45;;;10.40;99.90;;;;;;4978211;28;20038;-70
2022/10/19 06:51:39;;;;;;;12.05;1.83;;;10.50;99.90;;;;;;4977937;28;20453;-71
2022/10/19 06:54:05;;;;;;;7.20;1.60;;;10.50;99.90;;;;;;4977758;28;20054;-71
2022/10/19 06:56:31;;;;;;;13.52;1.90;;;10.50;99.90;;;;;;4977340;28;20050;-70
2022/10/19 06:58:57;;;;;;;10.20;1.60;;;10.60;99.90;;;;;;4977701;28;20438;-71
2022/10/19 07:01:23;;;;;;;11.55;2.10;;;10.60;99.90;;;;;;4961697;28;20042;-71
2022/10/19 07:03:50;;;;;;;8.82;1.67;;;10.60;99.90;;;;;;4977744;28;20040;-70
2022/10/19 07:06:16;;;;;;;12.60;1.63;;;10.70;99.90;;;;;;4978073;28;20046;-70
2022/10/19 07:08:43;;;;;;;9.60;1.65;;;10.70;99.90;;;;;;4978115;28;20095;-71
2022/10/19 07:11:13;;;;;;;12.38;1.75;;;10.80;99.90;;;;;;4978151;28;20077;-71
2022/10/19 07:13:38;;;;;;;15.18;2.03;;;10.80;99.90;;;;;;4978458;28;20526;-71
2022/10/19 07:16:08;;;;;;;9.02;1.45;;;10.80;99.90;;;;;;4978206;28;20527;-70
2022/10/19 07:18:34;;;;;;;18.30;2.72;;;10.90;99.90;;;;;;4977632;28;20407;-70
2022/10/19 07:21:03;;;;;;;10.07;1.70;;;10.90;99.90;;;;;;4961834;28;20042;-71
2022/10/19 07:23:30;;;;;;;9.35;1.70;;;10.90;99.90;;;;;;4977674;28;20045;-70
2022/10/19 07:26:00;;;;;;;10.27;1.70;;;11.00;99.90;;;;;;4977847;28;20057;-71
2022/10/19 07:28:28;;;;;;;11.82;2.30;;;11.10;99.90;;;;;;4977616;28;20559;-70
2022/10/19 07:30:54;;;;;;;12.90;2.60;;;11.10;99.90;;;;;;4961925;28;20049;-71
2022/10/19 07:33:19;;;;;;;12.85;1.80;;;11.20;99.90;;;;;;4978057;28;20038;-71
2022/10/19 07:35:45;;;;;;;14.32;2.20;;;11.20;99.90;;;;;;4977954;28;20046;-71
2022/10/19 07:38:11;;;;;;;10.70;1.98;;;11.30;99.90;;;;;;4977829;28;20479;-71
2022/10/19 07:40:36;;;;;;;13.40;2.10;;;11.30;99.90;;;;;;4977756;28;20116;-71
2022/10/19 07:43:02;;;;;;;12.68;2.20;;;11.40;99.90;;;;;;4978091;28;20042;-72
2022/10/19 07:45:28;;;;;;;12.82;1.98;;;11.40;99.90;;;;;;4977641;28;20133;-71
2022/10/19 07:47:54;;;;;;;10.93;1.67;;;11.50;99.90;;;;;;4961045;28;20046;-70
2022/10/19 07:50:21;;;;;;;10.25;1.50;;;11.60;99.90;;;;;;4977424;28;20050;-70
2022/10/19 07:52:47;;;;;;;9.75;1.92;;;11.70;99.90;;;;;;4977537;28;20054;-71
2022/10/19 07:55:12;;;;;;;12.43;1.60;;;11.70;99.90;;;;;;4977568;28;20454;-70
2022/10/19 07:57:38;;;;;;;10.48;1.88;;;11.80;99.90;;;;;;4976923;28;20069;-70
2022/10/19 08:00:04;;;;;;;14.73;1.80;;;11.80;99.90;;;;;;4977236;28;20086;-71
2022/10/19 08:02:30;;;;;;;13.07;2.03;;;11.90;99.90;;;;;;4977273;28;20406;-70
2022/10/19 08:04:55;;;;;;;9.52;1.73;;;11.90;99.90;;;;;;4977478;28;20042;-71
2022/10/19 08:07:21;;;;;;;10.82;1.42;;;12.00;99.90;;;;;;4977235;28;20487;-71
2022/10/19 08:09:46;;;;;;;13.00;1.92;;;12.00;99.90;;;;;;4977188;28;20517;-70
2022/10/19 08:12:12;;;;;;;20.25;1.88;;;12.10;99.90;;;;;;4977522;28;20042;-70
2022/10/19 08:14:37;;;;;;;9.40;1.30;;;12.10;99.90;;;;;;4976818;28;20050;-71
2022/10/19 08:17:03;;;;;;;17.08;2.13;;;12.20;99.90;;;;;;4993975;28;20074;-70
2022/10/19 08:19:28;;;;;;;10.70;1.75;;;12.30;99.90;;;;;;4976462;28;20031;-71
2022/10/19 08:21:54;;;;;;;12.52;1.73;;;12.40;99.90;;;;;;4960716;28;20477;-71
2022/10/19 08:24:20;;;;;;;16.25;2.40;;;12.40;99.90;;;;;;4976888;28;20496;-70
2022/10/19 08:26:46;;;;;;;10.07;1.63;;;12.50;99.90;;;;;;4976566;28;20045;-70
2022/10/19 08:29:18;;;;;;;9.35;1.80;;;12.50;99.90;;;;;;4976708;28;20038;-70
2022/10/19 08:31:45;;;;;;;6.57;1.52;;;12.60;99.90;;;;;;4976833;28;20069;-71
2022/10/19 08:34:11;;;;;;;10.57;1.70;;;12.60;99.90;;;;;;4978092;28;20100;-71
2022/10/19 08:36:37;;;;;;;12.40;1.40;;;12.60;99.90;;;;;;4977279;28;20417;-71
2022/10/19 08:39:05;;;;;;;6.65;1.48;;;12.70;99.90;;;;;;4977100;28;20117;-71
2022/10/19 08:41:51;;;;;;;10.77;1.27;;;12.70;99.90;;;;;;4976822;28;20049;-71
2022/10/19 08:44:46;;;;;;;10.43;1.83;;;12.80;99.90;;;;;;4960248;28;20429;-71
2022/10/19 08:47:12;;;;;;;10.50;1.40;;;13.00;99.90;;;;;;4899152;29;20088;-72
2022/10/19 08:49:38;;;;;;;6.68;1.15;;;13.10;99.90;;;;;;4898961;29;20181;-71
2022/10/19 08:52:11;;;;;;;11.73;1.40;;;13.20;99.90;;;;;;4899873;29;20064;-72
2022/10/19 08:54:50;;;;;;;8.90;1.52;;;13.30;99.90;;;;;;4899255;29;20058;-72
2022/10/19 08:57:31;;;;;;;9.45;1.70;;;13.20;99.90;;;;;;4899351;29;20060;-71
2022/10/19 09:00:17;;;;;;;9.80;1.52;;;13.20;99.90;;;;;;4883466;29;20537;-71
2022/10/19 09:03:01;;;;;;;11.32;1.92;;;13.20;99.90;;;;;;4899466;29;20047;-70
2022/10/19 09:05:29;;;;;;;8.15;1.23;;;13.20;99.90;;;;;;4900094;29;20036;-71
2022/10/19 09:07:55;;;;;;;8.60;1.30;;;13.20;99.90;;;;;;4899208;29;20054;-70
2022/10/19 09:10:42;;;;;;;11.65;1.65;;;13.10;99.90;;;;;;4899135;29;20052;-71
2022/10/19 09:13:33;;;;;;;9.20;1.70;;;13.10;99.90;;;;;;4899129;29;20107;-70
2022/10/19 09:15:59;;;;;;;11.80;1.98;;;13.20;99.90;;;;;;4883334;29;20147;-70
2022/10/19 09:18:29;;;;;;;11.38;1.85;;;13.20;99.90;;;;;;4900236;29;20044;-70
2022/10/19 09:21:05;;;;;;;9.23;1.55;;;13.20;99.90;;;;;;4902813;29;20091;-70
2022/10/19 09:23:38;;;;;;;12.02;1.95;;;13.30;99.90;;;;;;4939730;28;20050;-70
2022/10/19 09:26:11;;;;;;;;;;;13.30;99.90;;;;;;4980070;28;20046;-70
2022/10/19 09:29:03;;;;;;;14.48;1.75;;;13.20;99.90;;;;;;4963481;28;19924;-70
2022/10/19 09:31:35;;;;;;;9.35;1.77;;;13.10;99.90;;;;;;4975676;28;20049;-71
2022/10/19 09:34:06;;;;;;;10.73;1.70;;;13.20;99.90;;;;;;4979470;28;20580;-70
2022/10/19 09:36:43;;;;;;;10.80;1.98;;;13.20;99.90;;;;;;4980063;28;20053;-71
2022/10/19 09:39:12;;;;;;;12.77;2.17;;;13.30;99.90;;;;;;4979416;28;20030;-70
2022/10/19 09:41:45;;;;;;;8.77;1.70;;;13.20;99.90;;;;;;4979592;28;20057;-70
2022/10/19 09:44:10;;;;;;;;;;;13.30;99.90;;;;;;4980001;28;20080;-71
2022/10/19 09:47:01;;;;;;;10.75;1.45;;;13.20;99.90;;;;;;4979298;28;19918;-70
2022/10/19 09:49:44;;;;;;;8.50;1.60;;;13.30;99.90;;;;;;4979253;28;20108;-70
2022/10/19 09:52:33;;;;;;;;;;;13.40;99.90;;;;;;4963527;28;20046;-71
2022/10/19 09:55:20;;;;;;;7.82;1.27;;;13.40;99.90;;;;;;4978909;28;19924;-70
2022/10/19 09:57:48;;;;;;;11.25;2.00;;;13.40;99.90;;;;;;4978065;28;20443;-70
2022/10/19 10:00:30;;;;;;;11.40;2.22;;;13.40;99.90;;;;;;4979274;28;20448;-70
2022/10/19 10:02:56;;;;;;;10.60;1.45;;;13.50;99.90;;;;;;4962787;28;20049;-70
2022/10/19 10:05:31;;;;;;;10.48;1.83;;;13.50;99.90;;;;;;4978691;28;20034;-71
2022/10/19 10:07:57;;;;;;;8.65;1.73;;;13.60;99.90;;;;;;4978984;28;20042;-70
2022/10/19 10:10:27;;;;;;;7.45;1.20;;;13.70;99.90;;;;;;4978945;28;20526;-71
2022/10/19 10:12:53;;;;;;;10.60;1.73;;;13.70;99.90;;;;;;4978795;28;20418;-71
2022/10/19 10:15:23;;;;;;;11.07;1.35;;;13.80;99.90;;;;;;4978618;28;20054;-70
2022/10/19 10:17:50;;;;;;;13.82;1.77;;;13.90;99.90;;;;;;4978584;28;20038;-71
2022/10/19 10:20:27;;;;;;;10.02;1.48;;;13.90;99.90;;;;;;4978674;28;20077;-71
2022/10/19 10:23:04;;;;;;;11.18;1.55;;;13.90;99.90;;;;;;4978971;28;20078;-71
2022/10/19 10:25:33;;;;;;;9.20;1.50;;;13.80;99.90;;;;;;4962718;28;20038;-70
2022/10/19 10:28:16;;;;;;;12.15;1.73;;;13.80;99.90;;;;;;4978799;28;20046;-70
2022/10/19 10:30:44;;;;;;;7.57;1.50;;;13.90;99.90;;;;;;4977437;28;20402;-70
2022/10/19 10:33:25;;;;;;;8.15;1.90;;;14.00;99.90;;;;;;4978526;28;20046;-71
2022/10/19 10:35:54;;;;;;;8.73;2.05;;;14.10;99.90;;;;;;4962518;28;20108;-70
2022/10/19 10:38:42;;;;;;;9.25;1.73;;;14.10;99.90;;;;;;4961897;28;20050;-70
2022/10/19 10:41:16;;;;;;;10.40;1.60;;;14.20;99.90;;;;;;4978204;28;20046;-71
2022/10/19 10:43:55;;;;;;;10.95;1.80;;;14.30;99.90;;;;;;4978289;28;20070;-71
2022/10/19 10:46:28;;;;;;;8.93;1.60;;;14.40;99.90;;;;;;4978080;28;20041;-71
2022/10/19 10:49:00;;;;;;;9.95;1.40;;;14.50;99.90;;;;;;4978052;28;20042;-70
2022/10/19 10:51:33;;;;;;;6.78;1.05;;;14.60;99.90;;;;;;4978348;28;20534;-71
2022/10/19 10:54:16;;;;;;;10.85;1.00;;;14.60;99.90;;;;;;4978162;28;20129;-71
2022/10/19 10:56:44;;;;;;;8.45;1.45;;;15.00;99.60;;;;;;4977921;28;20134;-71
2022/10/19 10:59:15;;;;;;;9.02;1.73;;;15.20;99.10;;;;;;4977970;28;20046;-70
2022/10/19 11:01:50;;;;;;;8.70;1.35;;;15.40;98.60;;;;;;4978260;28;20053;-70
2022/10/19 11:04:25;;;;;;;9.32;1.45;;;15.50;98.40;;;;;;4978148;28;20057;-70
2022/10/19 11:06:58;;;;;;;9.15;1.85;;;15.40;97.90;;;;;;4978096;28;20050;-71
2022/10/19 11:09:28;;;;;;;;;;;15.40;97.80;;;;;;4978049;28;20508;-71
2022/10/19 11:11:58;;;;;;;6.15;1.40;;;15.20;98.10;;;;;;4978355;28;20013;-71
2022/10/19 11:14:44;;;;;;;7.93;1.50;;;15.10;98.00;;;;;;4978196;28;20129;-71
2022/10/19 11:17:17;;;;;;;8.80;1.60;;;15.10;97.40;;;;;;4977793;28;20050;-71
2022/10/19 11:19:44;;;;;;;;;;;15.00;97.50;;;;;;4962327;28;20130;-71
2022/10/19 11:22:27;;;;;;;5.97;1.52;;;14.80;96.90;;;;;;4977549;28;19917;-72
2022/10/19 11:25:16;;;;;;;7.25;1.33;;;14.80;98.10;;;;;;4977883;28;20035;-70
2022/10/19 11:27:53;;;;;;;7.80;1.30;;;14.90;97.60;;;;;;4977276;28;20089;-70
2022/10/19 11:30:21;;;;;;;7.72;1.33;;;15.40;97.40;;;;;;4978500;28;20050;-71
2022/10/19 11:32:52;;;;;;;7.90;1.30;;;16.40;95.80;;;;;;4978752;28;20043;-71
2022/10/19 11:35:37;;;;;;;7.72;1.58;;;17.50;94.50;;;;;;4978334;28;20049;-71
2022/10/19 11:38:11;;;;;;;8.75;1.67;;;18.70;92.70;;;;;;4978148;28;20529;-71
2022/10/19 11:41:08;;;;;;;8.15;1.67;;;18.70;90.90;;;;;;4978100;28;20041;-71
2022/10/19 11:43:40;;;;;;;10.23;1.98;;;18.20;89.30;;;;;;4961953;28;20048;-71
2022/10/19 11:46:18;;;;;;;9.15;1.75;;;17.70;90.80;;;;;;4978410;28;20038;-70
2022/10/19 11:48:58;;;;;;;8.40;1.40;;;17.20;91.40;;;;;;4978321;28;20526;-70
2022/10/19 11:51:56;;;;;;;8.85;1.40;;;16.80;91.60;;;;;;4978076;28;20038;-71
2022/10/19 11:54:55;;;;;;;7.95;1.42;;;16.50;92.00;;;;;;4978097;28;20065;-70
2022/10/19 11:57:39;;;;;;;9.05;1.58;;;16.30;93.00;;;;;;4967626;28;20499;-71
2022/10/19 12:00:11;;;;;;;8.73;1.60;;;16.30;93.70;;;;;;4961880;28;20438;-71
2022/10/19 12:02:39;;;;;;;7.07;1.40;;;16.30;93.80;;;;;;4977834;28;20496;-71
2022/10/19 12:05:25;;;;;;;8.57;1.30;;;16.40;93.80;;;;;;4977752;28;20038;-71
2022/10/19 12:08:06;;;;;;;6.78;1.30;;;16.50;93.60;;;;;;4977855;28;20564;-70
2022/10/19 12:10:47;;;;;;;8.63;1.67;;;16.50;92.50;;;;;;4977640;28;20045;-71
2022/10/19 12:13:18;;;;;;;4.90;1.05;;;16.30;92.10;;;;;;4976894;28;20038;-71
2022/10/19 12:15:49;;;;;;;10.40;1.33;;;16.20;93.00;;;;;;4976941;28;20034;-71
2022/10/19 12:18:40;;;;;;;8.52;1.30;;;16.00;93.40;;;;;;4976553;28;20053;-70
2022/10/19 12:21:30;;;;;;;7.07;1.10;;;15.90;92.80;;;;;;4976923;28;20046;-71
2022/10/19 12:24:03;;;;;;;7.13;1.33;;;15.70;92.90;;;;;;4976822;28;20121;-70
2022/10/19 12:26:33;;;;;;;8.98;1.75;;;15.80;93.80;;;;;;4976671;28;20384;-71
2022/10/19 12:29:03;;;;;;;7.38;1.30;;;16.00;93.90;;;;;;4976645;28;20082;-70
2022/10/19 12:31:29;;;;;;;6.28;0.90;;;16.20;93.40;;;;;;4977196;28;20054;-70
2022/10/19 12:34:09;;;;;;;5.70;0.98;;;16.40;93.00;;;;;;4976699;28;20038;-71
2022/10/19 12:36:56;;;;;;;8.90;1.63;;;16.40;92.60;;;;;;4977066;28;20048;-71
2022/10/19 12:39:39;;;;;;;7.80;0.93;;;16.70;92.40;;;;;;4976872;28;20046;-70
2022/10/19 12:42:21;;;;;;;5.22;1.08;;;17.10;92.00;;;;;;4977022;28;20125;-70
2022/10/19 12:45:17;;;;;;;5.25;1.10;;;17.40;90.90;;;;;;4976866;28;20049;-70
2022/10/19 12:48:19;;;;;;;5.75;1.17;;;17.50;90.70;;;;;;4976615;28;20046;-71
2022/10/19 12:50:47;;;;;;;5.53;1.30;;;17.30;90.20;;;;;;4960912;28;20050;-71
2022/10/19 12:53:29;;;;;;;12.57;1.80;;;16.90;90.70;;;;;;4977839;28;20034;-71
2022/10/19 12:56:12;;;;;;;6.22;1.10;;;16.60;90.70;;;;;;4964308;28;20042;-71
2022/10/19 12:58:44;;;;;;;5.20;1.13;;;16.30;91.20;;;;;;4980415;28;20054;-70
2022/10/19 13:01:17;;;;;;;9.60;1.17;;;16.20;91.80;;;;;;4964295;28;20553;-70